sensor_id;sensor_type;location;lat;lon;timestamp;pressure;altitude;pressure_sealevel;temperature;humidity
54882;BME280;40775;51.448;4.742;2023-11-19T00:00:30;101021.47;;;13.17;100.00
54882;BME280;40775;51.448;4.742;2023-11-19T00:02:57;101011.69;;;13.13;100.00
54882;BME280;40775;51.448;4.742;2023-11-19T00:05:24;101003.81;;;13.15;100.00
54882;BME280;40775;51.448;4.742;2023-11-19T00:07:51;100999.50;;;13.18;100.00
54882;BME280;40775;51.448;4.742;2023-11-19T00:10:19;100992.34;;;13.11;100.00
54882;BME280;40775;51.448;4.742;2023-11-19T00:12:49;100995.88;;;13.13;100.00
54882;BME280;40775;51.448;4.742;2023-11-19T00:15:17;100984.38;;;13.08;100.00
54882;BME280;40775;51.448;4.742;2023-11-19T00:17:47;100989.69;;;13.10;100.00
54882;BME280;40775;51.448;4.742;2023-11-19T00:20:20;100982.69;;;13.13;100.00
54882;BME280;40775;51.448;4.742;2023-11-19T00:22:49;100989.69;;;13.11;100.00
54882;BME280;40775;51.448;4.742;2023-11-19T00:25:20;100970.38;;;13.12;100.00
54882;BME280;40775;51.448;4.742;2023-11-19T00:27:51;100966.81;;;13.07;100.00
54882;BME280;40775;51.448;4.742;2023-11-19T00:30:18;100973.81;;;13.07;100.00
54882;BME280;40775;51.448;4.742;2023-11-19T00:32:45;100965.06;;;13.09;100.00
54882;BME280;40775;51.448;4.742;2023-11-19T00:35:12;100975.59;;;13.08;100.00
54882;BME280;40775;51.448;4.742;2023-11-19T00:37:43;100979.97;;;13.07;100.00
54882;BME280;40775;51.448;4.742;2023-11-19T00:40:12;100985.28;;;13.10;100.00
54882;BME280;40775;51.448;4.742;2023-11-19T00:42:39;100987.03;;;13.08;100.00
54882;BME280;40775;51.448;4.742;2023-11-19T00:45:06;100983.53;;;13.09;100.00
54882;BME280;40775;51.448;4.742;2023-11-19T00:47:37;100978.22;;;13.06;100.00
54882;BME280;40775;51.448;4.742;2023-11-19T00:50:05;100991.38;;;13.05;100.00
54882;BME280;40775;51.448;4.742;2023-11-19T00:52:32;100986.13;;;13.08;100.00
54882;BME280;40775;51.448;4.742;2023-11-19T00:54:59;100985.25;;;13.07;100.00
54882;BME280;40775;51.448;4.742;2023-11-19T00:57:27;100993.16;;;13.07;100.00
54882;BME280;40775;51.448;4.742;2023-11-19T00:59:54;100992.28;;;13.08;100.00
54882;BME280;40775;51.448;4.742;2023-11-19T01:02:21;100990.53;;;13.07;100.00
54882;BME280;40775;51.448;4.742;2023-11-19T01:04:48;100982.59;;;13.04;100.00
54882;BME280;40775;51.448;4.742;2023-11-19T01:07:15;100975.59;;;13.08;100.00
54882;BME280;40775;51.448;4.742;2023-11-19T01:09:43;100972.09;;;13.09;100.00
54882;BME280;40775;51.448;4.742;2023-11-19T01:12:10;100957.97;;;13.02;100.00
54882;BME280;40775;51.448;4.742;2023-11-19T01:14:37;100950.06;;;13.02;100.00
54882;BME280;40775;51.448;4.742;2023-11-19T01:17:05;100962.31;;;12.98;100.00
54882;BME280;40775;51.448;4.742;2023-11-19T01:19:32;100946.50;;;12.97;100.00
54882;BME280;40775;51.448;4.742;2023-11-19T01:21:59;100935.09;;;12.98;100.00
54882;BME280;40775;51.448;4.742;2023-11-19T01:24:26;100939.44;;;12.96;100.00
54882;BME280;40775;51.448;4.742;2023-11-19T01:26:55;100957.91;;;12.96;100.00
54882;BME280;40775;51.448;4.742;2023-11-19T01:29:24;100954.41;;;12.98;100.00
54882;BME280;40775;51.448;4.742;2023-11-19T01:31:51;100961.41;;;12.96;100.00
54882;BME280;40775;51.448;4.742;2023-11-19T01:34:18;100961.38;;;12.93;100.00
54882;BME280;40775;51.448;4.742;2023-11-19T01:36:47;100960.47;;;12.91;100.00
54882;BME280;40775;51.448;4.742;2023-11-19T01:39:16;100956.06;;;12.89;100.00
54882;BME280;40775;51.448;4.742;2023-11-19T01:41:43;100949.84;;;12.87;100.00
54882;BME280;40775;51.448;4.742;2023-11-19T01:44:11;100946.31;;;12.85;100.00
54882;BME280;40775;51.448;4.742;2023-11-19T01:46:42;100952.47;;;12.84;100.00
54882;BME280;40775;51.448;4.742;2023-11-19T01:49:11;100958.56;;;12.81;100.00
54882;BME280;40775;51.448;4.742;2023-11-19T01:51:39;100963.81;;;12.80;100.00
54882;BME280;40775;51.448;4.742;2023-11-19T01:54:07;100960.31;;;12.79;100.00
54882;BME280;40775;51.448;4.742;2023-11-19T01:56:36;100957.63;;;12.76;100.00
54882;BME280;40775;51.448;4.742;2023-11-19T01:59:04;100959.31;;;12.71;100.00
54882;BME280;40775;51.448;4.742;2023-11-19T02:01:31;100959.31;;;12.69;100.00
54882;BME280;40775;51.448;4.742;2023-11-19T02:04:01;100954.84;;;12.64;100.00
54882;BME280;40775;51.448;4.742;2023-11-19T02:06:30;100962.72;;;12.62;100.00
54882;BME280;40775;51.448;4.742;2023-11-19T02:08:58;100946.09;;;12.65;100.00
54882;BME280;40775;51.448;4.742;2023-11-19T02:11:25;100951.28;;;12.60;100.00
54882;BME280;40775;51.448;4.742;2023-11-19T02:13:56;100956.59;;;12.63;100.00
54882;BME280;40775;51.448;4.742;2023-11-19T02:16:23;100949.50;;;12.59;100.00
54882;BME280;40775;51.448;4.742;2023-11-19T02:18:51;100946.78;;;12.53;100.00
54882;BME280;40775;51.448;4.742;2023-11-19T02:21:18;100952.06;;;12.53;100.00
54882;BME280;40775;51.448;4.742;2023-11-19T02:23:45;100960.84;;;12.54;100.00
54882;BME280;40775;51.448;4.742;2023-11-19T02:26:33;100947.69;;;12.55;100.00
54882;BME280;40775;51.448;4.742;2023-11-19T02:29:01;100952.88;;;12.49;100.00
54882;BME280;40775;51.448;4.742;2023-11-19T02:31:33;100932.72;;;12.51;100.00
54882;BME280;40775;51.448;4.742;2023-11-19T02:34:02;100937.06;;;12.49;100.00
54882;BME280;40775;51.448;4.742;2023-11-19T02:36:29;100934.38;;;12.45;100.00
54882;BME280;40775;51.448;4.742;2023-11-19T02:38:56;100947.47;;;12.40;100.00
54882;BME280;40775;51.448;4.742;2023-11-19T02:41:23;100959.81;;;12.43;100.00
54882;BME280;40775;51.448;4.742;2023-11-19T02:43:51;100958.03;;;12.40;100.00
54882;BME280;40775;51.448;4.742;2023-11-19T02:46:18;100948.28;;;12.34;100.00
54882;BME280;40775;51.448;4.742;2023-11-19T02:48:46;100943.00;;;12.33;100.00
54882;BME280;40775;51.448;4.742;2023-11-19T02:51:13;100937.69;;;12.31;100.00
54882;BME280;40775;51.448;4.742;2023-11-19T02:53:40;100940.38;;;12.33;100.00
54882;BME280;40775;51.448;4.742;2023-11-19T02:56:08;100955.22;;;12.29;100.00
54882;BME280;40775;51.448;4.742;2023-11-19T02:58:52;100950.91;;;12.33;100.00
54882;BME280;40775;51.448;4.742;2023-11-19T03:01:26;100945.59;;;12.31;100.00
54882;BME280;40775;51.448;4.742;2023-11-19T03:03:59;100949.06;;;12.30;100.00
54882;BME280;40775;51.448;4.742;2023-11-19T03:06:28;100945.69;;;12.36;100.00
54882;BME280;40775;51.448;4.742;2023-11-19T03:08:56;100946.53;;;12.35;100.00
54882;BME280;40775;51.448;4.742;2023-11-19T03:11:23;100948.31;;;12.36;100.00
54882;BME280;40775;51.448;4.742;2023-11-19T03:13:51;100939.53;;;12.37;100.00
54882;BME280;40775;51.448;4.742;2023-11-19T03:16:18;100944.72;;;12.32;100.00
54882;BME280;40775;51.448;4.742;2023-11-19T03:18:45;100947.31;;;12.29;100.00
54882;BME280;40775;51.448;4.742;2023-11-19T03:21:12;100942.91;;;12.28;100.00
54882;BME280;40775;51.448;4.742;2023-11-19T03:23:39;100937.63;;;12.27;100.00
54882;BME280;40775;51.448;4.742;2023-11-19T03:26:07;100938.41;;;12.20;100.00
54882;BME280;40775;51.448;4.742;2023-11-19T03:28:35;100951.50;;;12.17;100.00
54882;BME280;40775;51.448;4.742;2023-11-19T03:31:05;100938.41;;;12.20;100.00
54882;BME280;40775;51.448;4.742;2023-11-19T03:33:35;100936.63;;;12.19;100.00
54882;BME280;40775;51.448;4.742;2023-11-19T03:36:05;100941.03;;;12.20;100.00
54882;BME280;40775;51.448;4.742;2023-11-19T03:38:32;100928.72;;;12.17;100.00
54882;BME280;40775;51.448;4.742;2023-11-19T03:40:59;100920.81;;;12.17;100.00
54882;BME280;40775;51.448;4.742;2023-11-19T03:43:26;100931.31;;;12.16;100.00
54882;BME280;40775;51.448;4.742;2023-11-19T03:45:54;100936.53;;;12.13;100.00
54882;BME280;40775;51.448;4.742;2023-11-19T03:48:21;100941.00;;;12.17;100.00
54882;BME280;40775;51.448;4.742;2023-11-19T03:50:48;100934.88;;;12.18;100.00
54882;BME280;40775;51.448;4.742;2023-11-19T03:53:16;100926.16;;;12.22;100.00
54882;BME280;40775;51.448;4.742;2023-11-19T03:55:43;100941.03;;;12.20;100.00
54882;BME280;40775;51.448;4.742;2023-11-19T03:58:09;100942.78;;;12.19;100.00
54882;BME280;40775;51.448;4.742;2023-11-19T04:00:36;100934.88;;;12.18;100.00
54882;BME280;40775;51.448;4.742;2023-11-19T04:03:03;100940.97;;;12.15;100.00
54882;BME280;40775;51.448;4.742;2023-11-19T04:05:31;100955.88;;;12.15;100.00
54882;BME280;40775;51.448;4.742;2023-11-19T04:07:58;100961.94;;;12.09;100.00
54882;BME280;40775;51.448;4.742;2023-11-19T04:10:25;100941.75;;;12.10;100.00
54882;BME280;40775;51.448;4.742;2023-11-19T04:12:54;100942.47;;;12.01;100.00
54882;BME280;40775;51.448;4.742;2023-11-19T04:15:21;100944.28;;;12.05;100.00
54882;BME280;40775;51.448;4.742;2023-11-19T04:17:48;100951.28;;;12.03;100.00
54882;BME280;40775;51.448;4.742;2023-11-19T04:20:16;100948.78;;;12.09;100.00
54882;BME280;40775;51.448;4.742;2023-11-19T04:22:43;100952.28;;;12.10;100.00
54882;BME280;40775;51.448;4.742;2023-11-19T04:25:10;100958.47;;;12.12;100.00
54882;BME280;40775;51.448;4.742;2023-11-19T04:27:37;100960.19;;;12.10;100.00
54882;BME280;40775;51.448;4.742;2023-11-19T04:30:05;100954.78;;;12.03;100.00
54882;BME280;40775;51.448;4.742;2023-11-19T04:32:34;100950.41;;;12.02;100.00
54882;BME280;40775;51.448;4.742;2023-11-19T04:35:01;100951.25;;;12.01;100.00
54882;BME280;40775;51.448;4.742;2023-11-19T04:37:29;100945.94;;;11.97;100.00
54882;BME280;40775;51.448;4.742;2023-11-19T04:39:56;100944.19;;;11.99;100.00
54882;BME280;40775;51.448;4.742;2023-11-19T04:42:23;100950.31;;;11.98;100.00
54882;BME280;40775;51.448;4.742;2023-11-19T04:44:51;100942.47;;;12.01;100.00
54882;BME280;40775;51.448;4.742;2023-11-19T04:47:18;100952.13;;;12.00;100.00
54882;BME280;40775;51.448;4.742;2023-11-19T04:49:45;100938.84;;;11.91;100.00
54882;BME280;40775;51.448;4.742;2023-11-19T04:52:12;100952.91;;;11.95;100.00
54882;BME280;40775;51.448;4.742;2023-11-19T04:54:43;100952.88;;;11.92;100.00
54882;BME280;40775;51.448;4.742;2023-11-19T04:57:11;100952.03;;;11.94;100.00
54882;BME280;40775;51.448;4.742;2023-11-19T04:59:38;100950.22;;;11.90;100.00
54882;BME280;40775;51.448;4.742;2023-11-19T05:02:05;100943.19;;;11.91;100.00
54882;BME280;40775;51.448;4.742;2023-11-19T05:04:32;100951.97;;;11.90;100.00
54882;BME280;40775;51.448;4.742;2023-11-19T05:07:00;100952.75;;;11.84;100.00
54882;BME280;40775;51.448;4.742;2023-11-19T05:09:27;100961.47;;;11.82;100.00
54882;BME280;40775;51.448;4.742;2023-11-19T05:11:54;100955.31;;;11.80;100.00
54882;BME280;40775;51.448;4.742;2023-11-19T05:14:21;100954.31;;;11.76;100.00
54882;BME280;40775;51.448;4.742;2023-11-19T05:16:48;100963.00;;;11.72;100.00
54882;BME280;40775;51.448;4.742;2023-11-19T05:19:16;100956.03;;;11.74;100.00
54882;BME280;40775;51.448;4.742;2023-11-19T05:21:43;100960.41;;;11.73;100.00
54882;BME280;40775;51.448;4.742;2023-11-19T05:24:11;100960.41;;;11.73;100.00
54882;BME280;40775;51.448;4.742;2023-11-19T05:26:41;100958.66;;;11.74;100.00
54882;BME280;40775;51.448;4.742;2023-11-19T05:29:08;100958.50;;;11.65;100.00
54882;BME280;40775;51.448;4.742;2023-11-19T05:31:35;100957.69;;;11.69;100.00
54882;BME280;40775;51.448;4.742;2023-11-19T05:34:04;100960.38;;;11.72;100.00
54882;BME280;40775;51.448;4.742;2023-11-19T05:36:31;100953.28;;;11.68;100.00
54882;BME280;40775;51.448;4.742;2023-11-19T05:38:58;100951.63;;;11.73;100.00
54882;BME280;40775;51.448;4.742;2023-11-19T05:41:25;100956.84;;;11.70;100.00
54882;BME280;40775;51.448;4.742;2023-11-19T05:43:52;100946.22;;;11.64;100.00
54882;BME280;40775;51.448;4.742;2023-11-19T05:46:19;100950.63;;;11.65;100.00
54882;BME280;40775;51.448;4.742;2023-11-19T05:48:47;100946.22;;;11.64;100.00
54882;BME280;40775;51.448;4.742;2023-11-19T05:51:15;100954.88;;;11.57;100.00
54882;BME280;40775;51.448;4.742;2023-11-19T05:53:43;100950.50;;;11.59;100.00
54882;BME280;40775;51.448;4.742;2023-11-19T05:56:10;100946.97;;;11.57;100.00
54882;BME280;40775;51.448;4.742;2023-11-19T05:58:37;100954.91;;;11.60;100.00
54882;BME280;40775;51.448;4.742;2023-11-19T06:01:06;100956.66;;;11.59;100.00
54882;BME280;40775;51.448;4.742;2023-11-19T06:03:35;100957.53;;;11.58;100.00
54882;BME280;40775;51.448;4.742;2023-11-19T06:06:04;100937.31;;;11.56;100.00
54882;BME280;40775;51.448;4.742;2023-11-19T06:08:32;100936.44;;;11.55;100.00
54882;BME280;40775;51.448;4.742;2023-11-19T06:10:59;100939.03;;;11.54;100.00
54882;BME280;40775;51.448;4.742;2023-11-19T06:13:28;100923.25;;;11.54;100.00
54882;BME280;40775;51.448;4.742;2023-11-19T06:15:58;100919.81;;;11.58;100.00
54882;BME280;40775;51.448;4.742;2023-11-19T06:18:25;100933.81;;;11.55;100.00
54882;BME280;40775;51.448;4.742;2023-11-19T06:20:53;100934.63;;;11.53;100.00
54882;BME280;40775;51.448;4.742;2023-11-19T06:23:19;100928.47;;;11.51;100.00
54882;BME280;40775;51.448;4.742;2023-11-19T06:25:46;100922.28;;;11.50;100.00
54882;BME280;40775;51.448;4.742;2023-11-19T06:28:14;100921.41;;;11.50;100.00
54882;BME280;40775;51.448;4.742;2023-11-19T06:30:41;100922.22;;;11.45;100.00
54882;BME280;40775;51.448;4.742;2023-11-19T06:33:09;100929.28;;;11.48;100.00
54882;BME280;40775;51.448;4.742;2023-11-19T06:35:39;100925.75;;;11.48;100.00
54882;BME280;40775;51.448;4.742;2023-11-19T06:38:06;100917.00;;;11.47;100.00
54882;BME280;40775;51.448;4.742;2023-11-19T06:40:33;100924.78;;;11.42;100.00
54882;BME280;40775;51.448;4.742;2023-11-19T06:43:02;100930.84;;;11.38;100.00
54882;BME280;40775;51.448;4.742;2023-11-19T06:45:30;100949.34;;;11.43;100.00
54882;BME280;40775;51.448;4.742;2023-11-19T06:47:58;100951.88;;;11.38;100.00
54882;BME280;40775;51.448;4.742;2023-11-19T06:50:27;100947.53;;;11.40;100.00
54882;BME280;40775;51.448;4.742;2023-11-19T06:52:54;100950.13;;;11.37;100.00
54882;BME280;40775;51.448;4.742;2023-11-19T06:55:25;100959.81;;;11.41;100.00
54882;BME280;40775;51.448;4.742;2023-11-19T06:58:13;100965.03;;;11.38;100.00
54882;BME280;40775;51.448;4.742;2023-11-19T07:00:40;100971.16;;;11.39;100.00
54882;BME280;40775;51.448;4.742;2023-11-19T07:03:08;100965.84;;;11.34;100.00
54882;BME280;40775;51.448;4.742;2023-11-19T07:05:38;100962.38;;;11.37;100.00
54882;BME280;40775;51.448;4.742;2023-11-19T07:08:06;100952.75;;;11.37;100.00
54882;BME280;40775;51.448;4.742;2023-11-19T07:10:34;100971.13;;;11.36;100.00
54882;BME280;40775;51.448;4.742;2023-11-19T07:13:01;100963.31;;;11.40;100.00
54882;BME280;40775;51.448;4.742;2023-11-19T07:15:28;100959.78;;;11.38;100.00
54882;BME280;40775;51.448;4.742;2023-11-19T07:17:55;100958.88;;;11.36;100.00
54882;BME280;40775;51.448;4.742;2023-11-19T07:20:25;100964.97;;;11.35;100.00
54882;BME280;40775;51.448;4.742;2023-11-19T07:22:54;100966.78;;;11.38;100.00
54882;BME280;40775;51.448;4.742;2023-11-19T07:25:24;100969.38;;;11.36;100.00
54882;BME280;40775;51.448;4.742;2023-11-19T07:27:52;100968.47;;;11.34;100.00
54882;BME280;40775;51.448;4.742;2023-11-19T07:30:19;100976.28;;;11.31;100.00
54882;BME280;40775;51.448;4.742;2023-11-19T07:32:47;100969.28;;;11.32;100.00
54882;BME280;40775;51.448;4.742;2023-11-19T07:35:15;100973.78;;;11.37;100.00
54882;BME280;40775;51.448;4.742;2023-11-19T07:37:45;100974.53;;;11.32;100.00
54882;BME280;40775;51.448;4.742;2023-11-19T07:40:14;100983.31;;;11.32;100.00
54882;BME280;40775;51.448;4.742;2023-11-19T07:42:41;100973.63;;;11.30;100.00
54882;BME280;40775;51.448;4.742;2023-11-19T07:45:09;100971.91;;;11.32;100.00
54882;BME280;40775;51.448;4.742;2023-11-19T07:47:36;100973.59;;;11.28;100.00
54882;BME280;40775;51.448;4.742;2023-11-19T07:50:03;100975.44;;;11.32;100.00
54882;BME280;40775;51.448;4.742;2023-11-19T07:52:30;100968.47;;;11.34;100.00
54882;BME280;40775;51.448;4.742;2023-11-19T07:54:57;100975.38;;;11.29;100.00
54882;BME280;40775;51.448;4.742;2023-11-19T07:57:24;100976.28;;;11.31;100.00
54882;BME280;40775;51.448;4.742;2023-11-19T07:59:51;100976.22;;;11.27;100.00
54882;BME280;40775;51.448;4.742;2023-11-19T08:02:18;100991.16;;;11.29;100.00
54882;BME280;40775;51.448;4.742;2023-11-19T08:04:47;100984.19;;;11.31;100.00
54882;BME280;40775;51.448;4.742;2023-11-19T08:07:17;100986.81;;;11.31;100.00
54882;BME280;40775;51.448;4.742;2023-11-19T08:09:45;100986.84;;;11.33;100.00
54882;BME280;40775;51.448;4.742;2023-11-19T08:12:12;100989.47;;;11.33;100.00
54882;BME280;40775;51.448;4.742;2023-11-19T08:14:41;100995.66;;;11.36;100.00
54882;BME280;40775;51.448;4.742;2023-11-19T08:17:08;100978.97;;;11.34;100.00
54882;BME280;40775;51.448;4.742;2023-11-19T08:19:35;100988.66;;;11.37;100.00
54882;BME280;40775;51.448;4.742;2023-11-19T08:22:02;100986.91;;;11.37;100.00
54882;BME280;40775;51.448;4.742;2023-11-19T08:24:29;100984.34;;;11.40;100.00
54882;BME280;40775;51.448;4.742;2023-11-19T08:26:56;100985.19;;;11.39;100.00
54882;BME280;40775;51.448;4.742;2023-11-19T08:29:26;100986.22;;;11.48;100.00
54882;BME280;40775;51.448;4.742;2023-11-19T08:31:54;100995.88;;;11.49;100.00
54882;BME280;40775;51.448;4.742;2023-11-19T08:34:21;100989.75;;;11.50;100.00
54882;BME280;40775;51.448;4.742;2023-11-19T08:36:50;100988.06;;;11.52;100.00
54882;BME280;40775;51.448;4.742;2023-11-19T08:39:20;100993.41;;;11.56;100.00
54882;BME280;40775;51.448;4.742;2023-11-19T08:41:48;100997.00;;;11.61;100.00
54882;BME280;40775;51.448;4.742;2023-11-19T08:44:15;100996.16;;;11.62;100.00
54882;BME280;40775;51.448;4.742;2023-11-19T08:46:52;100995.25;;;11.62;100.00
54882;BME280;40775;51.448;4.742;2023-11-19T08:49:19;100994.47;;;11.66;100.00
54882;BME280;40775;51.448;4.742;2023-11-19T08:51:46;101000.63;;;11.68;100.00
54882;BME280;40775;51.448;4.742;2023-11-19T08:54:13;100996.34;;;11.73;100.00
54882;BME280;40775;51.448;4.742;2023-11-19T08:56:41;100989.38;;;11.76;100.00
54882;BME280;40775;51.448;4.742;2023-11-19T08:59:08;100992.22;;;11.84;100.00
54882;BME280;40775;51.448;4.742;2023-11-19T09:01:35;100998.34;;;11.85;100.00
54882;BME280;40775;51.448;4.742;2023-11-19T09:04:03;101008.94;;;11.88;100.00
54882;BME280;40775;51.448;4.742;2023-11-19T09:06:31;100997.59;;;11.92;100.00
54882;BME280;40775;51.448;4.742;2023-11-19T09:08:58;100995.00;;;11.95;100.00
54882;BME280;40775;51.448;4.742;2023-11-19T09:11:29;100997.66;;;11.96;100.00
54882;BME280;40775;51.448;4.742;2023-11-19T09:13:57;100986.31;;;12.00;100.00
54882;BME280;40775;51.448;4.742;2023-11-19T09:16:24;100995.22;;;12.07;100.00
54882;BME280;40775;51.448;4.742;2023-11-19T09:18:52;100982.97;;;12.07;100.00
54882;BME280;40775;51.448;4.742;2023-11-19T09:21:19;100989.16;;;12.11;100.00
54882;BME280;40775;51.448;4.742;2023-11-19T09:23:46;100993.66;;;12.20;100.00
54882;BME280;40775;51.448;4.742;2023-11-19T09:26:14;100981.50;;;12.26;100.00
54882;BME280;40775;51.448;4.742;2023-11-19T09:28:41;100968.31;;;12.25;100.00
54882;BME280;40775;51.448;4.742;2023-11-19T09:31:15;100970.97;;;12.28;100.00
54882;BME280;40775;51.448;4.742;2023-11-19T09:33:43;100968.38;;;12.31;100.00
54882;BME280;40775;51.448;4.742;2023-11-19T09:36:12;100972.88;;;12.35;100.00
54882;BME280;40775;51.448;4.742;2023-11-19T09:38:41;100972.94;;;12.40;100.00
54882;BME280;40775;51.448;4.742;2023-11-19T09:41:09;100965.09;;;12.44;100.00
54882;BME280;40775;51.448;4.742;2023-11-19T09:43:42;100970.41;;;12.49;100.00
54882;BME280;40775;51.448;4.742;2023-11-19T09:46:10;100966.06;;;12.52;100.00
54882;BME280;40775;51.448;4.742;2023-11-19T09:48:38;100956.41;;;12.51;100.00
54882;BME280;40775;51.448;4.742;2023-11-19T09:51:09;100959.13;;;12.59;100.00
54882;BME280;40775;51.448;4.742;2023-11-19T09:53:37;100965.41;;;12.65;100.00
54882;BME280;40775;51.448;4.742;2023-11-19T09:56:05;100959.28;;;12.66;100.00
54882;BME280;40775;51.448;4.742;2023-11-19T09:58:33;100961.94;;;12.69;100.00
54882;BME280;40775;51.448;4.742;2023-11-19T10:01:00;100960.22;;;12.72;100.00
54882;BME280;40775;51.448;4.742;2023-11-19T10:03:35;100965.53;;;12.75;100.00
54882;BME280;40775;51.448;4.742;2023-11-19T10:06:10;100955.91;;;12.78;100.00
54882;BME280;40775;51.448;4.742;2023-11-19T10:08:42;100951.66;;;12.88;100.00
54882;BME280;40775;51.448;4.742;2023-11-19T10:11:10;100960.38;;;12.85;100.00
54882;BME280;40775;51.448;4.742;2023-11-19T10:13:42;100943.78;;;12.89;100.00
54882;BME280;40775;51.448;4.742;2023-11-19T10:16:12;100938.59;;;12.97;100.00
54882;BME280;40775;51.448;4.742;2023-11-19T10:18:47;100950.88;;;12.96;100.00
54882;BME280;40775;51.448;4.742;2023-11-19T10:21:15;100959.72;;;13.02;100.00
54882;BME280;40775;51.448;4.742;2023-11-19T10:23:57;100951.00;;;13.07;100.00
54882;BME280;40775;51.448;4.742;2023-11-19T10:26:27;100941.38;;;13.11;100.00
54882;BME280;40775;51.448;4.742;2023-11-19T10:28:56;100953.69;;;13.12;100.00
54882;BME280;40775;51.448;4.742;2023-11-19T10:31:23;100947.59;;;13.16;100.00
54882;BME280;40775;51.448;4.742;2023-11-19T10:33:53;100949.44;;;13.20;100.00
54882;BME280;40775;51.448;4.742;2023-11-19T10:36:21;100957.34;;;13.21;100.00
54882;BME280;40775;51.448;4.742;2023-11-19T10:38:56;100960.88;;;13.22;100.00
54882;BME280;40775;51.448;4.742;2023-11-19T10:41:31;100955.56;;;13.19;100.00
54882;BME280;40775;51.448;4.742;2023-11-19T10:43:59;100951.13;;;13.16;100.00
54882;BME280;40775;51.448;4.742;2023-11-19T10:46:56;100956.41;;;13.16;100.00
54882;BME280;40775;51.448;4.742;2023-11-19T10:49:22;100956.28;;;13.10;100.00
54882;BME280;40775;51.448;4.742;2023-11-19T10:51:50;100972.97;;;13.09;100.00
54882;BME280;40775;51.448;4.742;2023-11-19T10:54:19;100975.53;;;13.03;100.00
54882;BME280;40775;51.448;4.742;2023-11-19T10:56:55;100972.84;;;12.98;100.00
54882;BME280;40775;51.448;4.742;2023-11-19T10:59:30;100988.56;;;12.89;100.00
54882;BME280;40775;51.448;4.742;2023-11-19T11:02:04;100984.91;;;12.80;100.00
54882;BME280;40775;51.448;4.742;2023-11-19T11:04:39;100991.84;;;12.75;100.00
54882;BME280;40775;51.448;4.742;2023-11-19T11:07:08;100997.09;;;12.72;100.00
54882;BME280;40775;51.448;4.742;2023-11-19T11:09:35;101002.34;;;12.72;100.00
54882;BME280;40775;51.448;4.742;2023-11-19T11:12:04;100987.47;;;12.75;100.00
54882;BME280;40775;51.448;4.742;2023-11-19T11:14:34;100979.66;;;12.81;100.00
54882;BME280;40775;51.448;4.742;2023-11-19T11:17:05;100979.69;;;12.86;100.00
54882;BME280;40775;51.448;4.742;2023-11-19T11:19:35;100978.13;;;12.98;100.00
54882;BME280;40775;51.448;4.742;2023-11-19T11:22:04;100968.56;;;13.07;100.00
54882;BME280;40775;51.448;4.742;2023-11-19T11:25:02;100974.72;;;13.07;100.00
54882;BME280;40775;51.448;4.742;2023-11-19T11:30:49;100962.38;;;13.03;100.00
54882;BME280;40775;51.448;4.742;2023-11-19T11:33:41;100951.88;;;13.09;100.00
54882;BME280;40775;51.448;4.742;2023-11-19T11:36:27;100937.13;;;13.19;100.00
54882;BME280;40775;51.448;4.742;2023-11-19T11:38:58;100952.00;;;13.15;100.00
54882;BME280;40775;51.448;4.742;2023-11-19T11:41:34;100943.13;;;13.10;100.00
54882;BME280;40775;51.448;4.742;2023-11-19T11:44:01;100945.78;;;13.13;100.00
54882;BME280;40775;51.448;4.742;2023-11-19T11:49:07;100942.50;;;13.29;100.00
54882;BME280;40775;51.448;4.742;2023-11-19T11:54:14;100929.44;;;13.42;100.00
54882;BME280;40775;51.448;4.742;2023-11-19T11:57:11;100913.69;;;13.48;100.00
54882;BME280;40775;51.448;4.742;2023-11-19T11:59:47;100888.19;;;13.48;100.00
54882;BME280;40775;51.448;4.742;2023-11-19T12:02:22;100897.00;;;13.50;100.00
54882;BME280;40775;51.448;4.742;2023-11-19T12:04:52;100902.31;;;13.53;100.00
54882;BME280;40775;51.448;4.742;2023-11-19T12:07:22;100898.78;;;13.53;100.00
54882;BME280;40775;51.448;4.742;2023-11-19T12:10:09;100893.50;;;13.51;100.00
54882;BME280;40775;51.448;4.742;2023-11-19T12:12:40;100889.13;;;13.55;100.00
54882;BME280;40775;51.448;4.742;2023-11-19T12:15:09;100905.84;;;13.55;100.00
54882;BME280;40775;51.448;4.742;2023-11-19T12:17:42;100888.22;;;13.51;100.00
54882;BME280;40775;51.448;4.742;2023-11-19T12:20:13;100896.13;;;13.48;100.00
54882;BME280;40775;51.448;4.742;2023-11-19T12:22:41;100902.25;;;13.47;100.00
54882;BME280;40775;51.448;4.742;2023-11-19T12:25:10;100895.22;;;13.48;100.00
54882;BME280;40775;51.448;4.742;2023-11-19T12:27:44;100889.94;;;13.45;100.00
54882;BME280;40775;51.448;4.742;2023-11-19T12:30:12;100894.34;;;13.46;100.00
54882;BME280;40775;51.448;4.742;2023-11-19T12:32:43;100887.28;;;13.43;100.00
54882;BME280;40775;51.448;4.742;2023-11-19T12:35:12;100889.03;;;13.43;100.00
54882;BME280;40775;51.448;4.742;2023-11-19T12:37:45;100896.91;;;13.41;100.00
54882;BME280;40775;51.448;4.742;2023-11-19T12:40:30;100903.91;;;13.39;100.00
54882;BME280;40775;51.448;4.742;2023-11-19T12:42:57;100921.47;;;13.37;100.00
54882;BME280;40775;51.448;4.742;2023-11-19T12:45:24;100916.16;;;13.33;100.00
54882;BME280;40775;51.448;4.742;2023-11-19T12:48:06;100918.78;;;13.29;100.00
54882;BME280;40775;51.448;4.742;2023-11-19T12:50:56;100922.31;;;13.33;100.00
54882;BME280;40775;51.448;4.742;2023-11-19T12:53:28;100915.31;;;13.35;100.00
54882;BME280;40775;51.448;4.742;2023-11-19T12:55:55;100909.25;;;13.42;100.00
54882;BME280;40775;51.448;4.742;2023-11-19T12:58:35;100903.03;;;13.40;100.00